sensor_id;sensor_type;location;lat;lon;timestamp;P1;durP1;ratioP1;P2;durP2;ratioP2
30010;SDS011;16851;53.564;8.112;2023-01-10T00:03:27;40.93;;;12.23;;
30010;SDS011;16851;53.564;8.112;2023-01-10T00:08:29;25.03;;;10.17;;
30010;SDS011;16851;53.564;8.112;2023-01-10T00:13:31;39.77;;;11.23;;
30010;SDS011;16851;53.564;8.112;2023-01-10T00:18:35;33.17;;;11.07;;
30010;SDS011;16851;53.564;8.112;2023-01-10T00:23:44;28.47;;;10.77;;
30010;SDS011;16851;53.564;8.112;2023-01-10T00:28:46;30.17;;;9.10;;
30010;SDS011;16851;53.564;8.112;2023-01-10T00:33:48;25.57;;;9.40;;
30010;SDS011;16851;53.564;8.112;2023-01-10T00:38:52;24.33;;;7.13;;
30010;SDS011;16851;53.564;8.112;2023-01-10T00:43:53;24.00;;;8.83;;
30010;SDS011;16851;53.564;8.112;2023-01-10T00:49:05;25.70;;;7.97;;
30010;SDS011;16851;53.564;8.112;2023-01-10T00:54:08;28.97;;;7.90;;
30010;SDS011;16851;53.564;8.112;2023-01-10T00:59:11;22.70;;;6.77;;
30010;SDS011;16851;53.564;8.112;2023-01-10T01:04:13;29.43;;;7.50;;
30010;SDS011;16851;53.564;8.112;2023-01-10T01:09:20;23.23;;;7.70;;
30010;SDS011;16851;53.564;8.112;2023-01-10T01:14:24;26.90;;;7.30;;
30010;SDS011;16851;53.564;8.112;2023-01-10T01:19:26;21.27;;;6.43;;
30010;SDS011;16851;53.564;8.112;2023-01-10T01:24:30;18.47;;;6.50;;
30010;SDS011;16851;53.564;8.112;2023-01-10T01:29:36;27.07;;;7.00;;
30010;SDS011;16851;53.564;8.112;2023-01-10T01:34:43;23.43;;;6.97;;
30010;SDS011;16851;53.564;8.112;2023-01-10T01:39:47;21.63;;;4.90;;
30010;SDS011;16851;53.564;8.112;2023-01-10T01:50:20;23.30;;;6.97;;
30010;SDS011;16851;53.564;8.112;2023-01-10T01:55:30;25.93;;;6.50;;
30010;SDS011;16851;53.564;8.112;2023-01-10T02:00:35;17.37;;;5.87;;
30010;SDS011;16851;53.564;8.112;2023-01-10T02:05:57;29.33;;;5.50;;
30010;SDS011;16851;53.564;8.112;2023-01-10T02:11:19;25.30;;;5.80;;
30010;SDS011;16851;53.564;8.112;2023-01-10T02:16:23;21.93;;;5.37;;
30010;SDS011;16851;53.564;8.112;2023-01-10T02:37:12;28.90;;;6.13;;
30010;SDS011;16851;53.564;8.112;2023-01-10T02:47:39;18.33;;;3.60;;
30010;SDS011;16851;53.564;8.112;2023-01-10T02:52:42;18.33;;;4.07;;
30010;SDS011;16851;53.564;8.112;2023-01-10T02:57:55;23.53;;;4.97;;
30010;SDS011;16851;53.564;8.112;2023-01-10T03:03:51;19.97;;;4.43;;
30010;SDS011;16851;53.564;8.112;2023-01-10T03:09:08;21.13;;;4.43;;
30010;SDS011;16851;53.564;8.112;2023-01-10T03:14:21;38.13;;;5.00;;
30010;SDS011;16851;53.564;8.112;2023-01-10T03:19:27;26.93;;;5.50;;
30010;SDS011;16851;53.564;8.112;2023-01-10T03:24:33;21.03;;;4.47;;
30010;SDS011;16851;53.564;8.112;2023-01-10T03:34:46;28.83;;;5.03;;
30010;SDS011;16851;53.564;8.112;2023-01-10T03:39:55;25.07;;;4.50;;
30010;SDS011;16851;53.564;8.112;2023-01-10T03:45:05;24.37;;;4.40;;
30010;SDS011;16851;53.564;8.112;2023-01-10T03:50:18;28.53;;;4.03;;
30010;SDS011;16851;53.564;8.112;2023-01-10T03:55:25;30.93;;;4.63;;
30010;SDS011;16851;53.564;8.112;2023-01-10T04:00:30;22.17;;;4.50;;
30010;SDS011;16851;53.564;8.112;2023-01-10T04:05:35;27.60;;;4.63;;
30010;SDS011;16851;53.564;8.112;2023-01-10T04:10:40;31.47;;;4.90;;
30010;SDS011;16851;53.564;8.112;2023-01-10T04:15:45;29.13;;;4.10;;
30010;SDS011;16851;53.564;8.112;2023-01-10T04:20:47;23.63;;;4.40;;
30010;SDS011;16851;53.564;8.112;2023-01-10T04:25:53;27.80;;;4.90;;
30010;SDS011;16851;53.564;8.112;2023-01-10T04:30:57;35.77;;;5.73;;
30010;SDS011;16851;53.564;8.112;2023-01-10T04:35:58;29.87;;;5.20;;
30010;SDS011;16851;53.564;8.112;2023-01-10T04:41:02;30.80;;;4.57;;
30010;SDS011;16851;53.564;8.112;2023-01-10T04:46:05;25.47;;;5.50;;
30010;SDS011;16851;53.564;8.112;2023-01-10T04:51:07;24.13;;;5.20;;
30010;SDS011;16851;53.564;8.112;2023-01-10T04:56:15;28.30;;;5.13;;
30010;SDS011;16851;53.564;8.112;2023-01-10T05:01:23;24.17;;;4.73;;
30010;SDS011;16851;53.564;8.112;2023-01-10T05:06:28;25.37;;;4.93;;
30010;SDS011;16851;53.564;8.112;2023-01-10T05:11:38;27.93;;;5.30;;
30010;SDS011;16851;53.564;8.112;2023-01-10T05:16:39;24.33;;;4.57;;
30010;SDS011;16851;53.564;8.112;2023-01-10T05:21:43;25.17;;;4.57;;
30010;SDS011;16851;53.564;8.112;2023-01-10T05:26:45;29.50;;;5.17;;
30010;SDS011;16851;53.564;8.112;2023-01-10T05:31:54;26.43;;;4.67;;
30010;SDS011;16851;53.564;8.112;2023-01-10T05:36:58;24.87;;;4.47;;
30010;SDS011;16851;53.564;8.112;2023-01-10T05:42:05;21.77;;;4.47;;
30010;SDS011;16851;53.564;8.112;2023-01-10T05:47:11;25.30;;;4.70;;
30010;SDS011;16851;53.564;8.112;2023-01-10T05:52:16;24.53;;;4.73;;
30010;SDS011;16851;53.564;8.112;2023-01-10T05:57:22;31.03;;;5.40;;
30010;SDS011;16851;53.564;8.112;2023-01-10T06:02:29;32.40;;;5.07;;
30010;SDS011;16851;53.564;8.112;2023-01-10T06:07:31;29.60;;;4.70;;
30010;SDS011;16851;53.564;8.112;2023-01-10T06:12:42;20.33;;;4.80;;
30010;SDS011;16851;53.564;8.112;2023-01-10T06:17:44;18.60;;;4.33;;
30010;SDS011;16851;53.564;8.112;2023-01-10T06:22:48;32.77;;;5.57;;
30010;SDS011;16851;53.564;8.112;2023-01-10T06:27:52;25.50;;;5.27;;
30010;SDS011;16851;53.564;8.112;2023-01-10T06:33:01;28.97;;;5.30;;
30010;SDS011;16851;53.564;8.112;2023-01-10T06:38:07;21.77;;;5.33;;
30010;SDS011;16851;53.564;8.112;2023-01-10T06:43:08;30.00;;;6.90;;
30010;SDS011;16851;53.564;8.112;2023-01-10T06:48:12;29.33;;;5.27;;
30010;SDS011;16851;53.564;8.112;2023-01-10T06:53:16;20.53;;;4.67;;
30010;SDS011;16851;53.564;8.112;2023-01-10T06:58:20;24.50;;;5.63;;
30010;SDS011;16851;53.564;8.112;2023-01-10T07:03:23;29.70;;;5.37;;
30010;SDS011;16851;53.564;8.112;2023-01-10T07:08:28;35.53;;;6.73;;
30010;SDS011;16851;53.564;8.112;2023-01-10T07:13:32;26.57;;;5.17;;
30010;SDS011;16851;53.564;8.112;2023-01-10T07:18:34;23.70;;;5.50;;
30010;SDS011;16851;53.564;8.112;2023-01-10T07:23:42;24.13;;;5.87;;
30010;SDS011;16851;53.564;8.112;2023-01-10T07:28:46;31.07;;;6.60;;
30010;SDS011;16851;53.564;8.112;2023-01-10T07:33:51;26.30;;;6.90;;
30010;SDS011;16851;53.564;8.112;2023-01-10T07:38:53;28.30;;;6.67;;
30010;SDS011;16851;53.564;8.112;2023-01-10T07:43:57;30.48;;;6.78;;
30010;SDS011;16851;53.564;8.112;2023-01-10T07:49:03;37.27;;;7.07;;
30010;SDS011;16851;53.564;8.112;2023-01-10T07:54:10;29.73;;;6.93;;
30010;SDS011;16851;53.564;8.112;2023-01-10T07:59:17;33.10;;;6.90;;
30010;SDS011;16851;53.564;8.112;2023-01-10T08:04:21;27.97;;;7.17;;
30010;SDS011;16851;53.564;8.112;2023-01-10T08:09:23;30.47;;;7.40;;
30010;SDS011;16851;53.564;8.112;2023-01-10T08:14:25;32.60;;;7.63;;
30010;SDS011;16851;53.564;8.112;2023-01-10T08:19:29;27.90;;;6.93;;
30010;SDS011;16851;53.564;8.112;2023-01-10T08:24:31;32.00;;;10.20;;
30010;SDS011;16851;53.564;8.112;2023-01-10T08:29:32;29.97;;;9.63;;
30010;SDS011;16851;53.564;8.112;2023-01-10T08:34:36;30.00;;;8.67;;
30010;SDS011;16851;53.564;8.112;2023-01-10T08:39:39;21.63;;;6.93;;
30010;SDS011;16851;53.564;8.112;2023-01-10T08:44:44;26.73;;;6.97;;
30010;SDS011;16851;53.564;8.112;2023-01-10T08:49:45;23.47;;;7.37;;
30010;SDS011;16851;53.564;8.112;2023-01-10T08:54:50;24.73;;;7.43;;
30010;SDS011;16851;53.564;8.112;2023-01-10T08:59:52;28.63;;;7.17;;
30010;SDS011;16851;53.564;8.112;2023-01-10T09:04:55;27.30;;;6.90;;
30010;SDS011;16851;53.564;8.112;2023-01-10T09:09:57;25.67;;;6.57;;
30010;SDS011;16851;53.564;8.112;2023-01-10T09:15:00;29.57;;;7.87;;
30010;SDS011;16851;53.564;8.112;2023-01-10T09:20:08;22.00;;;7.30;;
30010;SDS011;16851;53.564;8.112;2023-01-10T09:25:15;24.57;;;7.23;;
30010;SDS011;16851;53.564;8.112;2023-01-10T09:30:17;31.83;;;7.57;;
30010;SDS011;16851;53.564;8.112;2023-01-10T09:35:25;30.00;;;7.17;;
30010;SDS011;16851;53.564;8.112;2023-01-10T09:45:39;33.93;;;8.07;;
30010;SDS011;16851;53.564;8.112;2023-01-10T09:56:20;35.13;;;7.97;;
30010;SDS011;16851;53.564;8.112;2023-01-10T10:01:25;38.87;;;8.53;;
30010;SDS011;16851;53.564;8.112;2023-01-10T10:06:35;26.73;;;7.93;;
30010;SDS011;16851;53.564;8.112;2023-01-10T10:11:51;27.57;;;8.20;;
30010;SDS011;16851;53.564;8.112;2023-01-10T10:43:33;33.97;;;8.27;;
30010;SDS011;16851;53.564;8.112;2023-01-10T10:48:39;33.40;;;8.00;;
30010;SDS011;16851;53.564;8.112;2023-01-10T10:53:58;31.20;;;7.37;;
30010;SDS011;16851;53.564;8.112;2023-01-10T10:59:04;29.73;;;7.27;;
30010;SDS011;16851;53.564;8.112;2023-01-10T11:04:09;29.67;;;5.70;;
30010;SDS011;16851;53.564;8.112;2023-01-10T11:09:13;32.47;;;7.50;;
30010;SDS011;16851;53.564;8.112;2023-01-10T11:14:43;20.93;;;4.40;;
30010;SDS011;16851;53.564;8.112;2023-01-10T11:20:06;32.23;;;7.43;;
30010;SDS011;16851;53.564;8.112;2023-01-10T11:25:18;25.30;;;5.17;;
30010;SDS011;16851;53.564;8.112;2023-01-10T11:30:25;23.17;;;5.63;;
30010;SDS011;16851;53.564;8.112;2023-01-10T11:35:35;27.67;;;5.50;;
30010;SDS011;16851;53.564;8.112;2023-01-10T11:41:43;28.60;;;4.70;;
30010;SDS011;16851;53.564;8.112;2023-01-10T11:46:20;21.57;;;4.77;;
30010;SDS011;16851;53.564;8.112;2023-01-10T11:51:29;20.80;;;4.70;;
30010;SDS011;16851;53.564;8.112;2023-01-10T11:56:34;26.13;;;4.77;;
30010;SDS011;16851;53.564;8.112;2023-01-10T12:01:38;24.00;;;5.63;;
30010;SDS011;16851;53.564;8.112;2023-01-10T12:06:46;19.60;;;4.87;;
30010;SDS011;16851;53.564;8.112;2023-01-10T12:11:50;26.67;;;5.10;;
30010;SDS011;16851;53.564;8.112;2023-01-10T12:17:05;24.77;;;5.57;;
30010;SDS011;16851;53.564;8.112;2023-01-10T12:22:08;31.47;;;5.57;;
30010;SDS011;16851;53.564;8.112;2023-01-10T12:27:14;23.17;;;4.67;;
30010;SDS011;16851;53.564;8.112;2023-01-10T12:32:25;24.97;;;5.13;;
30010;SDS011;16851;53.564;8.112;2023-01-10T12:37:33;25.40;;;5.40;;
30010;SDS011;16851;53.564;8.112;2023-01-10T12:42:48;27.50;;;4.70;;
30010;SDS011;16851;53.564;8.112;2023-01-10T12:48:13;17.70;;;3.53;;
30010;SDS011;16851;53.564;8.112;2023-01-10T12:58:54;27.60;;;5.57;;
30010;SDS011;16851;53.564;8.112;2023-01-10T13:04:00;28.07;;;5.40;;
30010;SDS011;16851;53.564;8.112;2023-01-10T13:09:07;24.27;;;4.80;;
30010;SDS011;16851;53.564;8.112;2023-01-10T13:14:14;35.07;;;5.80;;
30010;SDS011;16851;53.564;8.112;2023-01-10T13:24:24;25.00;;;5.17;;
30010;SDS011;16851;53.564;8.112;2023-01-10T13:29:38;17.57;;;5.23;;
30010;SDS011;16851;53.564;8.112;2023-01-10T13:34:45;27.17;;;6.20;;
30010;SDS011;16851;53.564;8.112;2023-01-10T13:39:51;28.03;;;6.50;;
30010;SDS011;16851;53.564;8.112;2023-01-10T14:00:56;24.87;;;6.07;;
30010;SDS011;16851;53.564;8.112;2023-01-10T14:16:50;33.03;;;6.33;;
30010;SDS011;16851;53.564;8.112;2023-01-10T14:21:54;21.63;;;4.83;;
30010;SDS011;16851;53.564;8.112;2023-01-10T14:27:01;28.60;;;5.60;;
30010;SDS011;16851;53.564;8.112;2023-01-10T14:32:14;26.73;;;5.63;;
30010;SDS011;16851;53.564;8.112;2023-01-10T14:37:41;32.63;;;5.93;;
30010;SDS011;16851;53.564;8.112;2023-01-10T14:42:48;22.53;;;5.43;;
30010;SDS011;16851;53.564;8.112;2023-01-10T14:47:55;25.47;;;5.77;;
30010;SDS011;16851;53.564;8.112;2023-01-10T14:52:59;26.63;;;5.80;;
30010;SDS011;16851;53.564;8.112;2023-01-10T14:58:03;25.93;;;5.60;;
30010;SDS011;16851;53.564;8.112;2023-01-10T15:03:18;27.43;;;6.03;;
30010;SDS011;16851;53.564;8.112;2023-01-10T15:08:27;26.38;;;6.03;;
30010;SDS011;16851;53.564;8.112;2023-01-10T15:13:37;26.07;;;5.73;;
30010;SDS011;16851;53.564;8.112;2023-01-10T15:18:47;24.13;;;5.20;;
30010;SDS011;16851;53.564;8.112;2023-01-10T15:23:52;34.93;;;6.30;;
30010;SDS011;16851;53.564;8.112;2023-01-10T15:29:27;37.83;;;8.80;;
30010;SDS011;16851;53.564;8.112;2023-01-10T15:34:25;39.13;;;6.60;;
30010;SDS011;16851;53.564;8.112;2023-01-10T15:39:37;28.20;;;6.80;;
30010;SDS011;16851;53.564;8.112;2023-01-10T15:44:41;33.83;;;6.37;;
30010;SDS011;16851;53.564;8.112;2023-01-10T15:49:51;28.17;;;7.20;;
30010;SDS011;16851;53.564;8.112;2023-01-10T15:54:58;39.87;;;8.80;;
30010;SDS011;16851;53.564;8.112;2023-01-10T16:00:00;35.80;;;7.80;;
30010;SDS011;16851;53.564;8.112;2023-01-10T16:05:14;35.17;;;8.03;;
30010;SDS011;16851;53.564;8.112;2023-01-10T16:10:24;39.77;;;9.20;;
30010;SDS011;16851;53.564;8.112;2023-01-10T16:15:28;37.07;;;7.87;;
30010;SDS011;16851;53.564;8.112;2023-01-10T16:20:36;32.30;;;7.50;;
30010;SDS011;16851;53.564;8.112;2023-01-10T16:25:43;31.73;;;8.70;;
30010;SDS011;16851;53.564;8.112;2023-01-10T16:30:48;34.03;;;8.10;;
30010;SDS011;16851;53.564;8.112;2023-01-10T16:35:51;34.07;;;7.20;;
30010;SDS011;16851;53.564;8.112;2023-01-10T16:40:57;33.58;;;8.90;;
30010;SDS011;16851;53.564;8.112;2023-01-10T16:46:00;31.17;;;6.37;;
30010;SDS011;16851;53.564;8.112;2023-01-10T16:51:17;36.33;;;6.70;;
30010;SDS011;16851;53.564;8.112;2023-01-10T16:56:24;29.10;;;7.17;;
30010;SDS011;16851;53.564;8.112;2023-01-10T17:01:34;36.60;;;7.93;;
30010;SDS011;16851;53.564;8.112;2023-01-10T17:06:49;31.73;;;7.70;;
30010;SDS011;16851;53.564;8.112;2023-01-10T17:11:54;29.23;;;8.77;;
30010;SDS011;16851;53.564;8.112;2023-01-10T17:17:03;34.93;;;8.17;;
30010;SDS011;16851;53.564;8.112;2023-01-10T17:22:20;37.80;;;8.50;;
30010;SDS011;16851;53.564;8.112;2023-01-10T17:27:25;40.03;;;8.57;;
30010;SDS011;16851;53.564;8.112;2023-01-10T17:32:27;42.23;;;9.40;;
30010;SDS011;16851;53.564;8.112;2023-01-10T17:37:31;37.60;;;9.57;;
30010;SDS011;16851;53.564;8.112;2023-01-10T17:42:35;26.53;;;6.83;;
30010;SDS011;16851;53.564;8.112;2023-01-10T17:47:37;40.43;;;8.93;;
30010;SDS011;16851;53.564;8.112;2023-01-10T17:52:39;32.53;;;8.20;;
30010;SDS011;16851;53.564;8.112;2023-01-10T17:57:40;43.60;;;8.40;;
30010;SDS011;16851;53.564;8.112;2023-01-10T18:02:42;35.13;;;7.67;;
30010;SDS011;16851;53.564;8.112;2023-01-10T18:08:43;39.00;;;7.33;;
30010;SDS011;16851;53.564;8.112;2023-01-10T18:13:44;35.90;;;8.10;;
30010;SDS011;16851;53.564;8.112;2023-01-10T18:18:47;36.30;;;7.23;;
30010;SDS011;16851;53.564;8.112;2023-01-10T18:23:53;29.50;;;7.43;;
30010;SDS011;16851;53.564;8.112;2023-01-10T18:28:59;29.80;;;7.23;;
30010;SDS011;16851;53.564;8.112;2023-01-10T18:34:04;30.83;;;6.50;;
30010;SDS011;16851;53.564;8.112;2023-01-10T18:39:07;32.90;;;7.37;;
30010;SDS011;16851;53.564;8.112;2023-01-10T18:44:11;30.93;;;5.73;;
30010;SDS011;16851;53.564;8.112;2023-01-10T18:49:15;22.90;;;5.60;;
30010;SDS011;16851;53.564;8.112;2023-01-10T18:54:17;30.87;;;5.87;;
30010;SDS011;16851;53.564;8.112;2023-01-10T18:59:21;35.80;;;6.77;;
30010;SDS011;16851;53.564;8.112;2023-01-10T19:04:26;23.60;;;5.20;;
30010;SDS011;16851;53.564;8.112;2023-01-10T19:09:36;25.80;;;6.30;;
30010;SDS011;16851;53.564;8.112;2023-01-10T19:14:38;31.13;;;6.00;;
30010;SDS011;16851;53.564;8.112;2023-01-10T19:19:40;21.87;;;4.70;;
30010;SDS011;16851;53.564;8.112;2023-01-10T19:24:46;21.53;;;5.80;;
30010;SDS011;16851;53.564;8.112;2023-01-10T19:29:48;32.13;;;7.87;;
30010;SDS011;16851;53.564;8.112;2023-01-10T19:34:53;35.87;;;6.33;;
30010;SDS011;16851;53.564;8.112;2023-01-10T19:39:55;26.53;;;5.70;;
30010;SDS011;16851;53.564;8.112;2023-01-10T19:45:01;34.90;;;6.63;;
30010;SDS011;16851;53.564;8.112;2023-01-10T19:50:08;27.03;;;5.87;;
30010;SDS011;16851;53.564;8.112;2023-01-10T19:55:14;32.80;;;6.20;;
30010;SDS011;16851;53.564;8.112;2023-01-10T20:00:19;22.33;;;4.50;;
30010;SDS011;16851;53.564;8.112;2023-01-10T20:05:21;28.70;;;5.77;;
30010;SDS011;16851;53.564;8.112;2023-01-10T20:10:24;28.33;;;5.43;;
30010;SDS011;16851;53.564;8.112;2023-01-10T20:15:28;17.37;;;4.27;;
30010;SDS011;16851;53.564;8.112;2023-01-10T20:20:30;21.03;;;5.43;;
30010;SDS011;16851;53.564;8.112;2023-01-10T20:25:32;20.93;;;4.93;;
30010;SDS011;16851;53.564;8.112;2023-01-10T20:30:38;23.63;;;5.60;;
30010;SDS011;16851;53.564;8.112;2023-01-10T20:35:41;20.30;;;6.10;;
30010;SDS011;16851;53.564;8.112;2023-01-10T20:40:44;26.40;;;5.80;;
30010;SDS011;16851;53.564;8.112;2023-01-10T20:45:46;27.93;;;7.23;;
30010;SDS011;16851;53.564;8.112;2023-01-10T20:50:51;17.53;;;6.17;;
30010;SDS011;16851;53.564;8.112;2023-01-10T20:56:03;13.97;;;4.87;;
30010;SDS011;16851;53.564;8.112;2023-01-10T21:01:09;20.70;;;5.77;;
30010;SDS011;16851;53.564;8.112;2023-01-10T21:06:18;17.97;;;6.10;;
30010;SDS011;16851;53.564;8.112;2023-01-10T21:11:22;18.43;;;7.43;;
30010;SDS011;16851;53.564;8.112;2023-01-10T21:16:27;15.87;;;7.00;;
30010;SDS011;16851;53.564;8.112;2023-01-10T21:21:31;17.13;;;6.03;;
30010;SDS011;16851;53.564;8.112;2023-01-10T21:26:33;13.23;;;6.87;;
30010;SDS011;16851;53.564;8.112;2023-01-10T21:31:37;16.33;;;7.57;;
30010;SDS011;16851;53.564;8.112;2023-01-10T21:36:39;11.67;;;7.67;;
30010;SDS011;16851;53.564;8.112;2023-01-10T21:41:40;17.30;;;7.80;;
30010;SDS011;16851;53.564;8.112;2023-01-10T21:47:05;18.20;;;9.27;;
30010;SDS011;16851;53.564;8.112;2023-01-10T21:52:09;12.53;;;7.17;;
30010;SDS011;16851;53.564;8.112;2023-01-10T21:57:11;17.27;;;9.63;;
30010;SDS011;16851;53.564;8.112;2023-01-10T22:02:13;18.07;;;10.77;;
30010;SDS011;16851;53.564;8.112;2023-01-10T22:07:17;17.00;;;10.53;;
30010;SDS011;16851;53.564;8.112;2023-01-10T22:12:25;13.20;;;9.63;;
30010;SDS011;16851;53.564;8.112;2023-01-10T22:17:28;10.20;;;7.20;;
30010;SDS011;16851;53.564;8.112;2023-01-10T22:22:30;14.80;;;11.27;;
30010;SDS011;16851;53.564;8.112;2023-01-10T22:27:36;15.97;;;10.77;;
30010;SDS011;16851;53.564;8.112;2023-01-10T22:32:47;11.53;;;7.07;;
30010;SDS011;16851;53.564;8.112;2023-01-10T22:37:59;16.10;;;12.23;;
30010;SDS011;16851;53.564;8.112;2023-01-10T22:43:03;20.10;;;15.80;;
30010;SDS011;16851;53.564;8.112;2023-01-10T22:48:05;21.93;;;17.47;;
30010;SDS011;16851;53.564;8.112;2023-01-10T22:53:08;19.10;;;14.60;;
30010;SDS011;16851;53.564;8.112;2023-01-10T22:58:11;24.00;;;19.03;;
30010;SDS011;16851;53.564;8.112;2023-01-10T23:03:19;22.77;;;17.07;;
30010;SDS011;16851;53.564;8.112;2023-01-10T23:08:21;28.87;;;21.37;;
30010;SDS011;16851;53.564;8.112;2023-01-10T23:13:25;31.83;;;22.63;;
30010;SDS011;16851;53.564;8.112;2023-01-10T23:18:28;33.90;;;24.80;;
30010;SDS011;16851;53.564;8.112;2023-01-10T23:23:32;30.10;;;24.00;;
30010;SDS011;16851;53.564;8.112;2023-01-10T23:28:41;27.30;;;22.97;;
30010;SDS011;16851;53.564;8.112;2023-01-10T23:33:51;28.63;;;20.17;;
30010;SDS011;16851;53.564;8.112;2023-01-10T23:38:53;35.83;;;28.47;;
30010;SDS011;16851;53.564;8.112;2023-01-10T23:43:57;32.93;;;22.90;;
30010;SDS011;16851;53.564;8.112;2023-01-10T23:48:59;37.83;;;27.73;;
30010;SDS011;16851;53.564;8.112;2023-01-10T23:54:02;41.67;;;28.10;;
30010;SDS011;16851;53.564;8.112;2023-01-10T23:59:05;28.13;;;18.57;;
